sensor_id;sensor_type;location;lat;lon;timestamp;P1;durP1;ratioP1;P2;durP2;ratioP2
62693;SDS011;48759;52.544;13.418;2023-02-23T00:00:50;23.10;;;11.67;;
62693;SDS011;48759;52.544;13.418;2023-02-23T00:03:17;25.20;;;10.20;;
62693;SDS011;48759;52.544;13.418;2023-02-23T00:05:44;28.40;;;11.10;;
62693;SDS011;48759;52.544;13.418;2023-02-23T00:08:11;25.60;;;10.70;;
62693;SDS011;48759;52.544;13.418;2023-02-23T00:10:39;31.60;;;11.67;;
62693;SDS011;48759;52.544;13.418;2023-02-23T00:13:05;25.30;;;10.60;;
62693;SDS011;48759;52.544;13.418;2023-02-23T00:15:35;22.30;;;11.67;;
62693;SDS011;48759;52.544;13.418;2023-02-23T00:18:02;19.97;;;11.50;;
62693;SDS011;48759;52.544;13.418;2023-02-23T00:20:30;26.83;;;11.40;;
62693;SDS011;48759;52.544;13.418;2023-02-23T00:22:56;25.97;;;12.50;;
62693;SDS011;48759;52.544;13.418;2023-02-23T00:25:23;23.93;;;11.43;;
62693;SDS011;48759;52.544;13.418;2023-02-23T00:27:52;21.60;;;11.40;;
62693;SDS011;48759;52.544;13.418;2023-02-23T00:30:19;35.17;;;13.73;;
62693;SDS011;48759;52.544;13.418;2023-02-23T00:32:46;33.03;;;13.00;;
62693;SDS011;48759;52.544;13.418;2023-02-23T00:35:13;30.03;;;12.37;;
62693;SDS011;48759;52.544;13.418;2023-02-23T00:37:43;37.17;;;12.53;;
62693;SDS011;48759;52.544;13.418;2023-02-23T00:40:11;22.07;;;10.90;;
62693;SDS011;48759;52.544;13.418;2023-02-23T00:42:41;32.80;;;13.30;;
62693;SDS011;48759;52.544;13.418;2023-02-23T00:45:10;25.83;;;11.37;;
62693;SDS011;48759;52.544;13.418;2023-02-23T00:47:39;28.50;;;13.77;;
62693;SDS011;48759;52.544;13.418;2023-02-23T00:50:08;29.20;;;12.20;;
62693;SDS011;48759;52.544;13.418;2023-02-23T00:52:37;21.27;;;12.60;;
62693;SDS011;48759;52.544;13.418;2023-02-23T00:55:05;23.07;;;12.30;;
62693;SDS011;48759;52.544;13.418;2023-02-23T00:57:33;28.13;;;11.77;;
62693;SDS011;48759;52.544;13.418;2023-02-23T00:59:59;30.60;;;13.50;;
62693;SDS011;48759;52.544;13.418;2023-02-23T01:02:38;29.13;;;11.77;;
62693;SDS011;48759;52.544;13.418;2023-02-23T01:05:06;28.67;;;12.27;;
62693;SDS011;48759;52.544;13.418;2023-02-23T01:07:33;34.30;;;14.10;;
62693;SDS011;48759;52.544;13.418;2023-02-23T01:10:00;33.70;;;11.83;;
62693;SDS011;48759;52.544;13.418;2023-02-23T01:12:31;31.37;;;13.17;;
62693;SDS011;48759;52.544;13.418;2023-02-23T01:14:58;25.60;;;11.87;;
62693;SDS011;48759;52.544;13.418;2023-02-23T01:17:27;26.90;;;11.83;;
62693;SDS011;48759;52.544;13.418;2023-02-23T01:19:56;40.50;;;12.43;;
62693;SDS011;48759;52.544;13.418;2023-02-23T01:22:22;29.10;;;12.90;;
62693;SDS011;48759;52.544;13.418;2023-02-23T01:24:49;33.80;;;13.67;;
62693;SDS011;48759;52.544;13.418;2023-02-23T01:27:16;22.50;;;13.27;;
62693;SDS011;48759;52.544;13.418;2023-02-23T01:29:44;24.67;;;12.57;;
62693;SDS011;48759;52.544;13.418;2023-02-23T01:32:10;29.07;;;14.03;;
62693;SDS011;48759;52.544;13.418;2023-02-23T01:34:37;30.13;;;12.83;;
62693;SDS011;48759;52.544;13.418;2023-02-23T01:37:05;26.00;;;13.40;;
62693;SDS011;48759;52.544;13.418;2023-02-23T01:39:32;25.70;;;13.10;;
62693;SDS011;48759;52.544;13.418;2023-02-23T01:41:59;30.23;;;12.53;;
62693;SDS011;48759;52.544;13.418;2023-02-23T01:47:44;23.80;;;11.53;;
62693;SDS011;48759;52.544;13.418;2023-02-23T01:50:12;29.33;;;13.10;;
62693;SDS011;48759;52.544;13.418;2023-02-23T01:52:41;29.93;;;13.33;;
62693;SDS011;48759;52.544;13.418;2023-02-23T01:55:09;29.93;;;14.23;;
62693;SDS011;48759;52.544;13.418;2023-02-23T01:57:38;28.13;;;12.40;;
62693;SDS011;48759;52.544;13.418;2023-02-23T02:00:07;32.10;;;12.83;;
62693;SDS011;48759;52.544;13.418;2023-02-23T02:02:38;27.03;;;12.80;;
62693;SDS011;48759;52.544;13.418;2023-02-23T02:05:06;30.37;;;12.87;;
62693;SDS011;48759;52.544;13.418;2023-02-23T02:07:38;25.87;;;12.80;;
62693;SDS011;48759;52.544;13.418;2023-02-23T02:10:11;24.60;;;12.63;;
62693;SDS011;48759;52.544;13.418;2023-02-23T02:12:58;30.37;;;13.27;;
62693;SDS011;48759;52.544;13.418;2023-02-23T02:15:25;34.90;;;13.40;;
62693;SDS011;48759;52.544;13.418;2023-02-23T02:17:58;38.27;;;15.23;;
62693;SDS011;48759;52.544;13.418;2023-02-23T02:20:43;29.50;;;13.37;;
62693;SDS011;48759;52.544;13.418;2023-02-23T02:23:53;29.57;;;13.20;;
62693;SDS011;48759;52.544;13.418;2023-02-23T02:26:43;28.13;;;12.77;;
62693;SDS011;48759;52.544;13.418;2023-02-23T02:29:26;22.87;;;12.57;;
62693;SDS011;48759;52.544;13.418;2023-02-23T02:35:27;32.20;;;13.60;;
62693;SDS011;48759;52.544;13.418;2023-02-23T02:38:11;29.97;;;13.57;;
62693;SDS011;48759;52.544;13.418;2023-02-23T02:40:49;23.03;;;11.83;;
62693;SDS011;48759;52.544;13.418;2023-02-23T02:43:24;28.03;;;13.37;;
62693;SDS011;48759;52.544;13.418;2023-02-23T02:46:00;25.70;;;11.90;;
62693;SDS011;48759;52.544;13.418;2023-02-23T02:48:35;30.30;;;13.30;;
62693;SDS011;48759;52.544;13.418;2023-02-23T02:51:07;25.30;;;12.40;;
62693;SDS011;48759;52.544;13.418;2023-02-23T02:53:46;26.33;;;13.47;;
62693;SDS011;48759;52.544;13.418;2023-02-23T02:56:20;29.33;;;13.20;;
62693;SDS011;48759;52.544;13.418;2023-02-23T02:58:50;26.40;;;12.50;;
62693;SDS011;48759;52.544;13.418;2023-02-23T03:01:18;31.70;;;13.80;;
62693;SDS011;48759;52.544;13.418;2023-02-23T03:04:16;31.10;;;13.00;;
62693;SDS011;48759;52.544;13.418;2023-02-23T03:07:04;34.63;;;13.27;;
62693;SDS011;48759;52.544;13.418;2023-02-23T03:09:55;27.37;;;13.70;;
62693;SDS011;48759;52.544;13.418;2023-02-23T03:12:44;25.93;;;13.77;;
62693;SDS011;48759;52.544;13.418;2023-02-23T03:15:37;25.03;;;12.87;;
62693;SDS011;48759;52.544;13.418;2023-02-23T03:18:37;29.07;;;13.33;;
62693;SDS011;48759;52.544;13.418;2023-02-23T03:21:32;30.43;;;12.67;;
62693;SDS011;48759;52.544;13.418;2023-02-23T03:24:26;23.20;;;13.07;;
62693;SDS011;48759;52.544;13.418;2023-02-23T03:27:18;33.53;;;15.27;;
62693;SDS011;48759;52.544;13.418;2023-02-23T03:30:10;24.07;;;13.00;;
62693;SDS011;48759;52.544;13.418;2023-02-23T03:33:03;30.23;;;14.30;;
62693;SDS011;48759;52.544;13.418;2023-02-23T03:35:55;30.87;;;14.37;;
62693;SDS011;48759;52.544;13.418;2023-02-23T03:38:45;27.43;;;13.97;;
62693;SDS011;48759;52.544;13.418;2023-02-23T03:41:36;26.87;;;13.70;;
62693;SDS011;48759;52.544;13.418;2023-02-23T03:44:26;30.57;;;13.73;;
62693;SDS011;48759;52.544;13.418;2023-02-23T03:47:14;28.83;;;12.97;;
62693;SDS011;48759;52.544;13.418;2023-02-23T03:50:01;29.67;;;13.90;;
62693;SDS011;48759;52.544;13.418;2023-02-23T03:52:51;31.27;;;15.60;;
62693;SDS011;48759;52.544;13.418;2023-02-23T03:55:40;24.40;;;13.70;;
62693;SDS011;48759;52.544;13.418;2023-02-23T03:58:27;28.40;;;13.40;;
62693;SDS011;48759;52.544;13.418;2023-02-23T04:01:18;26.60;;;12.87;;
62693;SDS011;48759;52.544;13.418;2023-02-23T04:04:05;30.60;;;13.40;;
62693;SDS011;48759;52.544;13.418;2023-02-23T04:06:51;22.20;;;13.13;;
62693;SDS011;48759;52.544;13.418;2023-02-23T04:09:40;23.50;;;14.07;;
62693;SDS011;48759;52.544;13.418;2023-02-23T04:12:25;38.63;;;13.93;;
62693;SDS011;48759;52.544;13.418;2023-02-23T04:15:17;29.20;;;13.50;;
62693;SDS011;48759;52.544;13.418;2023-02-23T04:17:50;26.50;;;13.60;;
62693;SDS011;48759;52.544;13.418;2023-02-23T04:20:18;27.53;;;13.77;;
62693;SDS011;48759;52.544;13.418;2023-02-23T04:22:45;32.43;;;13.57;;
62693;SDS011;48759;52.544;13.418;2023-02-23T04:25:12;26.70;;;14.77;;
62693;SDS011;48759;52.544;13.418;2023-02-23T04:27:40;40.50;;;15.30;;
62693;SDS011;48759;52.544;13.418;2023-02-23T04:30:07;25.50;;;14.53;;
62693;SDS011;48759;52.544;13.418;2023-02-23T04:32:35;33.87;;;15.00;;
62693;SDS011;48759;52.544;13.418;2023-02-23T04:35:04;33.73;;;14.00;;
62693;SDS011;48759;52.544;13.418;2023-02-23T04:37:31;32.30;;;14.13;;
62693;SDS011;48759;52.544;13.418;2023-02-23T04:39:58;30.97;;;14.67;;
62693;SDS011;48759;52.544;13.418;2023-02-23T04:42:25;35.93;;;14.97;;
62693;SDS011;48759;52.544;13.418;2023-02-23T04:44:52;26.80;;;13.20;;
62693;SDS011;48759;52.544;13.418;2023-02-23T04:47:19;32.07;;;12.53;;
62693;SDS011;48759;52.544;13.418;2023-02-23T04:49:46;28.60;;;12.30;;
62693;SDS011;48759;52.544;13.418;2023-02-23T04:52:14;39.27;;;14.07;;
62693;SDS011;48759;52.544;13.418;2023-02-23T04:54:41;31.17;;;13.60;;
62693;SDS011;48759;52.544;13.418;2023-02-23T04:57:07;41.63;;;14.93;;
62693;SDS011;48759;52.544;13.418;2023-02-23T04:59:34;23.17;;;13.57;;
62693;SDS011;48759;52.544;13.418;2023-02-23T05:02:02;26.87;;;13.70;;
62693;SDS011;48759;52.544;13.418;2023-02-23T05:04:29;30.30;;;14.47;;
62693;SDS011;48759;52.544;13.418;2023-02-23T05:06:56;23.17;;;14.13;;
62693;SDS011;48759;52.544;13.418;2023-02-23T05:09:24;29.90;;;12.70;;
62693;SDS011;48759;52.544;13.418;2023-02-23T05:11:50;27.23;;;13.07;;
62693;SDS011;48759;52.544;13.418;2023-02-23T05:14:17;29.23;;;14.10;;
62693;SDS011;48759;52.544;13.418;2023-02-23T05:16:43;30.20;;;13.90;;
62693;SDS011;48759;52.544;13.418;2023-02-23T05:19:10;27.77;;;13.50;;
62693;SDS011;48759;52.544;13.418;2023-02-23T05:21:37;26.93;;;13.73;;
62693;SDS011;48759;52.544;13.418;2023-02-23T05:24:05;29.57;;;13.57;;
62693;SDS011;48759;52.544;13.418;2023-02-23T05:26:33;28.87;;;14.70;;
62693;SDS011;48759;52.544;13.418;2023-02-23T05:29:00;28.13;;;13.10;;
62693;SDS011;48759;52.544;13.418;2023-02-23T05:31:27;34.97;;;13.83;;
62693;SDS011;48759;52.544;13.418;2023-02-23T05:33:54;31.43;;;13.97;;
62693;SDS011;48759;52.544;13.418;2023-02-23T05:36:20;37.60;;;13.17;;
62693;SDS011;48759;52.544;13.418;2023-02-23T05:38:47;32.40;;;14.17;;
62693;SDS011;48759;52.544;13.418;2023-02-23T05:41:15;26.67;;;14.13;;
62693;SDS011;48759;52.544;13.418;2023-02-23T05:43:46;23.57;;;12.00;;
62693;SDS011;48759;52.544;13.418;2023-02-23T05:46:14;29.87;;;12.70;;
62693;SDS011;48759;52.544;13.418;2023-02-23T05:48:49;29.52;;;13.38;;
62693;SDS011;48759;52.544;13.418;2023-02-23T05:51:25;30.33;;;13.90;;
62693;SDS011;48759;52.544;13.418;2023-02-23T05:53:57;29.97;;;14.50;;
62693;SDS011;48759;52.544;13.418;2023-02-23T05:56:23;29.80;;;13.10;;
62693;SDS011;48759;52.544;13.418;2023-02-23T05:58:52;30.30;;;13.30;;
62693;SDS011;48759;52.544;13.418;2023-02-23T06:04:46;34.03;;;14.03;;
62693;SDS011;48759;52.544;13.418;2023-02-23T06:07:16;31.57;;;13.73;;
62693;SDS011;48759;52.544;13.418;2023-02-23T06:09:44;34.20;;;13.20;;
62693;SDS011;48759;52.544;13.418;2023-02-23T06:12:10;32.77;;;13.50;;
62693;SDS011;48759;52.544;13.418;2023-02-23T06:14:38;29.83;;;13.50;;
62693;SDS011;48759;52.544;13.418;2023-02-23T06:17:05;35.40;;;13.47;;
62693;SDS011;48759;52.544;13.418;2023-02-23T06:19:32;28.73;;;13.67;;
62693;SDS011;48759;52.544;13.418;2023-02-23T06:21:59;26.30;;;12.40;;
62693;SDS011;48759;52.544;13.418;2023-02-23T06:24:25;26.97;;;13.00;;
62693;SDS011;48759;52.544;13.418;2023-02-23T06:26:55;29.73;;;13.43;;
62693;SDS011;48759;52.544;13.418;2023-02-23T06:29:22;33.63;;;15.50;;
62693;SDS011;48759;52.544;13.418;2023-02-23T06:31:50;31.83;;;13.93;;
62693;SDS011;48759;52.544;13.418;2023-02-23T06:34:16;25.50;;;13.13;;
62693;SDS011;48759;52.544;13.418;2023-02-23T06:36:43;33.43;;;13.77;;
62693;SDS011;48759;52.544;13.418;2023-02-23T06:39:10;25.93;;;13.37;;
62693;SDS011;48759;52.544;13.418;2023-02-23T06:41:37;28.23;;;14.60;;
62693;SDS011;48759;52.544;13.418;2023-02-23T06:44:04;34.47;;;14.93;;
62693;SDS011;48759;52.544;13.418;2023-02-23T06:46:31;28.10;;;13.47;;
62693;SDS011;48759;52.544;13.418;2023-02-23T06:48:59;31.00;;;13.70;;
62693;SDS011;48759;52.544;13.418;2023-02-23T06:51:26;30.23;;;14.87;;
62693;SDS011;48759;52.544;13.418;2023-02-23T06:53:53;28.43;;;14.67;;
62693;SDS011;48759;52.544;13.418;2023-02-23T06:56:19;25.70;;;12.70;;
62693;SDS011;48759;52.544;13.418;2023-02-23T06:58:46;30.67;;;15.03;;
62693;SDS011;48759;52.544;13.418;2023-02-23T07:01:13;33.17;;;14.20;;
62693;SDS011;48759;52.544;13.418;2023-02-23T07:03:40;41.53;;;14.70;;
62693;SDS011;48759;52.544;13.418;2023-02-23T07:06:08;31.23;;;13.83;;
62693;SDS011;48759;52.544;13.418;2023-02-23T07:08:35;27.33;;;13.93;;
62693;SDS011;48759;52.544;13.418;2023-02-23T07:11:06;30.10;;;13.80;;
62693;SDS011;48759;52.544;13.418;2023-02-23T07:13:33;26.13;;;13.27;;
62693;SDS011;48759;52.544;13.418;2023-02-23T07:16:00;29.50;;;14.47;;
62693;SDS011;48759;52.544;13.418;2023-02-23T07:18:27;27.80;;;15.03;;
62693;SDS011;48759;52.544;13.418;2023-02-23T07:20:54;28.67;;;13.47;;
62693;SDS011;48759;52.544;13.418;2023-02-23T07:23:22;25.57;;;12.57;;
62693;SDS011;48759;52.544;13.418;2023-02-23T07:25:49;31.87;;;13.97;;
62693;SDS011;48759;52.544;13.418;2023-02-23T07:28:17;31.00;;;14.17;;
62693;SDS011;48759;52.544;13.418;2023-02-23T07:30:43;23.63;;;13.37;;
62693;SDS011;48759;52.544;13.418;2023-02-23T07:33:10;30.97;;;14.37;;
62693;SDS011;48759;52.544;13.418;2023-02-23T07:35:36;29.17;;;13.27;;
62693;SDS011;48759;52.544;13.418;2023-02-23T07:38:03;31.80;;;13.77;;
62693;SDS011;48759;52.544;13.418;2023-02-23T07:40:32;34.20;;;14.23;;
62693;SDS011;48759;52.544;13.418;2023-02-23T07:42:59;25.90;;;13.43;;
62693;SDS011;48759;52.544;13.418;2023-02-23T07:45:26;29.30;;;14.40;;
62693;SDS011;48759;52.544;13.418;2023-02-23T07:48:14;33.57;;;15.13;;
62693;SDS011;48759;52.544;13.418;2023-02-23T07:50:57;24.40;;;14.37;;
62693;SDS011;48759;52.544;13.418;2023-02-23T07:53:24;36.53;;;15.27;;
62693;SDS011;48759;52.544;13.418;2023-02-23T07:55:56;30.87;;;13.03;;
62693;SDS011;48759;52.544;13.418;2023-02-23T07:58:23;30.63;;;14.03;;
62693;SDS011;48759;52.544;13.418;2023-02-23T08:00:50;26.90;;;13.57;;
62693;SDS011;48759;52.544;13.418;2023-02-23T08:03:17;23.30;;;14.30;;
62693;SDS011;48759;52.544;13.418;2023-02-23T08:05:44;26.90;;;14.40;;
62693;SDS011;48759;52.544;13.418;2023-02-23T08:08:12;27.40;;;15.67;;
62693;SDS011;48759;52.544;13.418;2023-02-23T08:10:39;29.43;;;15.07;;
62693;SDS011;48759;52.544;13.418;2023-02-23T08:13:07;31.33;;;16.50;;
62693;SDS011;48759;52.544;13.418;2023-02-23T08:15:34;28.37;;;15.70;;
62693;SDS011;48759;52.544;13.418;2023-02-23T08:18:01;30.10;;;14.70;;
62693;SDS011;48759;52.544;13.418;2023-02-23T08:20:27;30.23;;;13.97;;
62693;SDS011;48759;52.544;13.418;2023-02-23T08:22:55;31.13;;;15.80;;
62693;SDS011;48759;52.544;13.418;2023-02-23T08:25:22;26.90;;;15.40;;
62693;SDS011;48759;52.544;13.418;2023-02-23T08:27:49;30.83;;;15.30;;
62693;SDS011;48759;52.544;13.418;2023-02-23T08:30:19;34.83;;;16.27;;
62693;SDS011;48759;52.544;13.418;2023-02-23T08:32:47;27.70;;;15.27;;
62693;SDS011;48759;52.544;13.418;2023-02-23T08:35:14;30.53;;;15.07;;
62693;SDS011;48759;52.544;13.418;2023-02-23T08:37:42;32.53;;;15.67;;
62693;SDS011;48759;52.544;13.418;2023-02-23T08:40:10;37.60;;;17.60;;
62693;SDS011;48759;52.544;13.418;2023-02-23T08:42:39;38.50;;;16.60;;
62693;SDS011;48759;52.544;13.418;2023-02-23T08:45:06;29.20;;;14.63;;
62693;SDS011;48759;52.544;13.418;2023-02-23T08:47:35;36.93;;;16.57;;
62693;SDS011;48759;52.544;13.418;2023-02-23T08:50:02;24.37;;;15.10;;
62693;SDS011;48759;52.544;13.418;2023-02-23T08:52:30;35.07;;;16.10;;
62693;SDS011;48759;52.544;13.418;2023-02-23T08:54:58;29.20;;;14.20;;
62693;SDS011;48759;52.544;13.418;2023-02-23T08:57:24;27.70;;;13.67;;
62693;SDS011;48759;52.544;13.418;2023-02-23T08:59:52;30.10;;;14.80;;
62693;SDS011;48759;52.544;13.418;2023-02-23T09:02:18;27.60;;;14.77;;
62693;SDS011;48759;52.544;13.418;2023-02-23T09:04:47;26.80;;;14.77;;
62693;SDS011;48759;52.544;13.418;2023-02-23T09:07:15;32.30;;;15.27;;
62693;SDS011;48759;52.544;13.418;2023-02-23T09:09:43;35.37;;;16.70;;
62693;SDS011;48759;52.544;13.418;2023-02-23T09:12:10;30.43;;;16.00;;
62693;SDS011;48759;52.544;13.418;2023-02-23T09:14:37;27.83;;;15.80;;
62693;SDS011;48759;52.544;13.418;2023-02-23T09:17:04;31.90;;;17.10;;
62693;SDS011;48759;52.544;13.418;2023-02-23T09:19:31;30.53;;;16.00;;
62693;SDS011;48759;52.544;13.418;2023-02-23T09:21:59;28.60;;;16.60;;
62693;SDS011;48759;52.544;13.418;2023-02-23T09:24:26;35.20;;;16.63;;
62693;SDS011;48759;52.544;13.418;2023-02-23T09:26:52;33.97;;;16.73;;
62693;SDS011;48759;52.544;13.418;2023-02-23T09:29:19;28.20;;;15.97;;
62693;SDS011;48759;52.544;13.418;2023-02-23T09:31:47;36.40;;;17.70;;
62693;SDS011;48759;52.544;13.418;2023-02-23T09:34:15;34.10;;;17.50;;
62693;SDS011;48759;52.544;13.418;2023-02-23T09:36:42;31.80;;;17.23;;
62693;SDS011;48759;52.544;13.418;2023-02-23T09:39:10;27.20;;;15.93;;
62693;SDS011;48759;52.544;13.418;2023-02-23T09:41:45;35.33;;;17.40;;
62693;SDS011;48759;52.544;13.418;2023-02-23T09:44:43;28.17;;;17.40;;
62693;SDS011;48759;52.544;13.418;2023-02-23T09:47:30;30.30;;;17.47;;
62693;SDS011;48759;52.544;13.418;2023-02-23T09:50:07;33.90;;;17.30;;
62693;SDS011;48759;52.544;13.418;2023-02-23T09:52:43;35.37;;;18.57;;
62693;SDS011;48759;52.544;13.418;2023-02-23T09:55:14;34.07;;;15.77;;
62693;SDS011;48759;52.544;13.418;2023-02-23T09:57:42;34.73;;;17.77;;
62693;SDS011;48759;52.544;13.418;2023-02-23T10:00:15;29.70;;;16.77;;
62693;SDS011;48759;52.544;13.418;2023-02-23T10:02:53;34.23;;;18.03;;
62693;SDS011;48759;52.544;13.418;2023-02-23T10:05:31;39.00;;;17.33;;
62693;SDS011;48759;52.544;13.418;2023-02-23T10:08:11;24.23;;;16.67;;
62693;SDS011;48759;52.544;13.418;2023-02-23T10:10:48;34.57;;;17.07;;
62693;SDS011;48759;52.544;13.418;2023-02-23T10:13:24;27.90;;;17.03;;
62693;SDS011;48759;52.544;13.418;2023-02-23T10:16:03;36.43;;;17.90;;
62693;SDS011;48759;52.544;13.418;2023-02-23T10:18:38;32.40;;;18.17;;
62693;SDS011;48759;52.544;13.418;2023-02-23T10:21:11;35.47;;;17.13;;
62693;SDS011;48759;52.544;13.418;2023-02-23T10:23:42;37.33;;;19.17;;
62693;SDS011;48759;52.544;13.418;2023-02-23T10:26:15;37.87;;;18.60;;
62693;SDS011;48759;52.544;13.418;2023-02-23T10:28:45;39.40;;;18.73;;
62693;SDS011;48759;52.544;13.418;2023-02-23T10:31:20;40.50;;;17.50;;
62693;SDS011;48759;52.544;13.418;2023-02-23T10:33:51;41.37;;;18.50;;
62693;SDS011;48759;52.544;13.418;2023-02-23T10:36:26;30.43;;;18.10;;
62693;SDS011;48759;52.544;13.418;2023-02-23T10:39:00;31.40;;;18.23;;
62693;SDS011;48759;52.544;13.418;2023-02-23T10:41:29;35.70;;;17.77;;
62693;SDS011;48759;52.544;13.418;2023-02-23T10:43:56;35.40;;;20.10;;
62693;SDS011;48759;52.544;13.418;2023-02-23T10:46:24;31.10;;;18.20;;
62693;SDS011;48759;52.544;13.418;2023-02-23T10:48:57;36.07;;;18.60;;
62693;SDS011;48759;52.544;13.418;2023-02-23T10:51:25;29.97;;;17.13;;
62693;SDS011;48759;52.544;13.418;2023-02-23T10:53:55;42.43;;;20.37;;
62693;SDS011;48759;52.544;13.418;2023-02-23T10:56:21;40.13;;;20.50;;
62693;SDS011;48759;52.544;13.418;2023-02-23T10:58:50;39.20;;;20.70;;
62693;SDS011;48759;52.544;13.418;2023-02-23T11:01:30;39.40;;;19.90;;
62693;SDS011;48759;52.544;13.418;2023-02-23T11:04:11;30.90;;;17.83;;
62693;SDS011;48759;52.544;13.418;2023-02-23T11:06:41;37.97;;;19.27;;
62693;SDS011;48759;52.544;13.418;2023-02-23T11:09:24;40.47;;;20.30;;
62693;SDS011;48759;52.544;13.418;2023-02-23T11:11:56;37.73;;;20.00;;
62693;SDS011;48759;52.544;13.418;2023-02-23T11:14:26;44.57;;;24.20;;
62693;SDS011;48759;52.544;13.418;2023-02-23T11:16:54;34.40;;;21.10;;
62693;SDS011;48759;52.544;13.418;2023-02-23T11:19:23;30.93;;;20.87;;
62693;SDS011;48759;52.544;13.418;2023-02-23T11:21:55;53.73;;;22.83;;
62693;SDS011;48759;52.544;13.418;2023-02-23T11:24:23;34.50;;;21.77;;
62693;SDS011;48759;52.544;13.418;2023-02-23T11:26:52;40.73;;;21.90;;
62693;SDS011;48759;52.544;13.418;2023-02-23T11:29:23;39.90;;;23.17;;
62693;SDS011;48759;52.544;13.418;2023-02-23T11:31:57;44.57;;;25.07;;
62693;SDS011;48759;52.544;13.418;2023-02-23T11:34:27;46.13;;;23.57;;
62693;SDS011;48759;52.544;13.418;2023-02-23T11:37:00;35.27;;;22.53;;
62693;SDS011;48759;52.544;13.418;2023-02-23T11:39:30;37.30;;;21.90;;
62693;SDS011;48759;52.544;13.418;2023-02-23T11:42:11;38.93;;;22.43;;
62693;SDS011;48759;52.544;13.418;2023-02-23T11:44:42;40.70;;;23.63;;
62693;SDS011;48759;52.544;13.418;2023-02-23T11:47:15;40.57;;;24.17;;
62693;SDS011;48759;52.544;13.418;2023-02-23T11:49:45;45.03;;;24.50;;
62693;SDS011;48759;52.544;13.418;2023-02-23T11:52:14;42.80;;;23.27;;
62693;SDS011;48759;52.544;13.418;2023-02-23T11:54:48;39.20;;;23.20;;
62693;SDS011;48759;52.544;13.418;2023-02-23T11:57:21;39.23;;;20.77;;
62693;SDS011;48759;52.544;13.418;2023-02-23T11:59:51;33.10;;;21.23;;
62693;SDS011;48759;52.544;13.418;2023-02-23T12:02:20;33.90;;;20.60;;
62693;SDS011;48759;52.544;13.418;2023-02-23T12:04:49;37.50;;;20.43;;
62693;SDS011;48759;52.544;13.418;2023-02-23T12:07:28;37.53;;;21.07;;
62693;SDS011;48759;52.544;13.418;2023-02-23T12:10:04;37.63;;;21.13;;
62693;SDS011;48759;52.544;13.418;2023-02-23T12:12:39;39.13;;;22.40;;
62693;SDS011;48759;52.544;13.418;2023-02-23T12:15:22;36.47;;;21.20;;
62693;SDS011;48759;52.544;13.418;2023-02-23T12:17:54;39.50;;;19.07;;
62693;SDS011;48759;52.544;13.418;2023-02-23T12:20:26;35.20;;;21.87;;
62693;SDS011;48759;52.544;13.418;2023-02-23T12:22:56;33.80;;;20.17;;
62693;SDS011;48759;52.544;13.418;2023-02-23T12:25:28;37.13;;;21.67;;
62693;SDS011;48759;52.544;13.418;2023-02-23T12:28:02;35.03;;;20.60;;
62693;SDS011;48759;52.544;13.418;2023-02-23T12:30:41;32.47;;;19.93;;
62693;SDS011;48759;52.544;13.418;2023-02-23T12:33:12;33.47;;;20.63;;
62693;SDS011;48759;52.544;13.418;2023-02-23T12:35:45;35.83;;;23.00;;
62693;SDS011;48759;52.544;13.418;2023-02-23T12:38:22;34.10;;;20.47;;
62693;SDS011;48759;52.544;13.418;2023-02-23T12:40:55;34.43;;;22.43;;
62693;SDS011;48759;52.544;13.418;2023-02-23T12:43:31;45.03;;;21.77;;
62693;SDS011;48759;52.544;13.418;2023-02-23T12:46:05;36.83;;;21.23;;
62693;SDS011;48759;52.544;13.418;2023-02-23T12:48:42;41.60;;;21.80;;
62693;SDS011;48759;52.544;13.418;2023-02-23T12:51:17;38.97;;;22.20;;
62693;SDS011;48759;52.544;13.418;2023-02-23T12:53:50;37.23;;;22.00;;
62693;SDS011;48759;52.544;13.418;2023-02-23T12:56:29;33.07;;;21.77;;
62693;SDS011;48759;52.544;13.418;2023-02-23T12:59:09;41.40;;;20.97;;
62693;SDS011;48759;52.544;13.418;2023-02-23T13:01:45;32.10;;;20.90;;
62693;SDS011;48759;52.544;13.418;2023-02-23T13:04:25;42.60;;;22.37;;
62693;SDS011;48759;52.544;13.418;2023-02-23T13:07:05;36.40;;;21.73;;
62693;SDS011;48759;52.544;13.418;2023-02-23T13:09:42;34.90;;;20.77;;
62693;SDS011;48759;52.544;13.418;2023-02-23T13:15:08;37.23;;;21.77;;
62693;SDS011;48759;52.544;13.418;2023-02-23T13:17:48;42.27;;;21.77;;
62693;SDS011;48759;52.544;13.418;2023-02-23T13:20:21;45.90;;;23.90;;
62693;SDS011;48759;52.544;13.418;2023-02-23T13:22:59;40.33;;;24.30;;
62693;SDS011;48759;52.544;13.418;2023-02-23T13:25:35;42.53;;;24.27;;
62693;SDS011;48759;52.544;13.418;2023-02-23T13:28:13;38.57;;;23.90;;
62693;SDS011;48759;52.544;13.418;2023-02-23T13:30:43;37.50;;;22.23;;
62693;SDS011;48759;52.544;13.418;2023-02-23T13:33:14;37.97;;;22.23;;
62693;SDS011;48759;52.544;13.418;2023-02-23T13:35:49;40.10;;;22.63;;
62693;SDS011;48759;52.544;13.418;2023-02-23T13:38:18;39.43;;;22.90;;
62693;SDS011;48759;52.544;13.418;2023-02-23T13:40:56;39.67;;;22.40;;
62693;SDS011;48759;52.544;13.418;2023-02-23T13:43:30;32.80;;;21.43;;
62693;SDS011;48759;52.544;13.418;2023-02-23T13:46:04;43.90;;;23.53;;
62693;SDS011;48759;52.544;13.418;2023-02-23T13:48:46;42.33;;;24.73;;
62693;SDS011;48759;52.544;13.418;2023-02-23T13:51:20;42.20;;;23.23;;
62693;SDS011;48759;52.544;13.418;2023-02-23T13:54:00;46.17;;;23.20;;
62693;SDS011;48759;52.544;13.418;2023-02-23T13:56:30;38.20;;;23.47;;
62693;SDS011;48759;52.544;13.418;2023-02-23T13:59:02;38.10;;;24.10;;
62693;SDS011;48759;52.544;13.418;2023-02-23T14:01:34;43.07;;;25.10;;
62693;SDS011;48759;52.544;13.418;2023-02-23T14:04:12;40.60;;;24.40;;
62693;SDS011;48759;52.544;13.418;2023-02-23T14:06:48;45.00;;;25.00;;
62693;SDS011;48759;52.544;13.418;2023-02-23T14:09:21;39.50;;;24.03;;
62693;SDS011;48759;52.544;13.418;2023-02-23T14:11:50;42.33;;;24.80;;
62693;SDS011;48759;52.544;13.418;2023-02-23T14:14:38;38.87;;;24.40;;
62693;SDS011;48759;52.544;13.418;2023-02-23T14:17:11;39.80;;;25.60;;
62693;SDS011;48759;52.544;13.418;2023-02-23T14:20:11;45.57;;;26.30;;
62693;SDS011;48759;52.544;13.418;2023-02-23T14:25:45;43.57;;;24.50;;
62693;SDS011;48759;52.544;13.418;2023-02-23T14:28:24;42.63;;;25.00;;
62693;SDS011;48759;52.544;13.418;2023-02-23T14:31:00;41.80;;;27.33;;
62693;SDS011;48759;52.544;13.418;2023-02-23T14:33:36;40.70;;;25.33;;
62693;SDS011;48759;52.544;13.418;2023-02-23T14:39:24;45.20;;;23.63;;
62693;SDS011;48759;52.544;13.418;2023-02-23T14:41:54;42.73;;;24.67;;
62693;SDS011;48759;52.544;13.418;2023-02-23T14:44:24;40.60;;;25.70;;
62693;SDS011;48759;52.544;13.418;2023-02-23T14:46:55;53.07;;;28.00;;
62693;SDS011;48759;52.544;13.418;2023-02-23T14:49:27;45.30;;;26.90;;
62693;SDS011;48759;52.544;13.418;2023-02-23T14:51:59;48.60;;;26.83;;
62693;SDS011;48759;52.544;13.418;2023-02-23T14:54:33;47.97;;;29.47;;
62693;SDS011;48759;52.544;13.418;2023-02-23T14:57:02;53.13;;;30.53;;